createdAt,value
2022-12-01T00:00:32.842Z,158
2022-12-01T00:01:32.797Z,158
2022-12-01T00:02:33.445Z,158
2022-12-01T00:03:32.946Z,160
2022-12-01T00:04:32.972Z,154
2022-12-01T00:05:32.940Z,144
2022-12-01T00:06:32.991Z,145
2022-12-01T00:07:33.020Z,145
2022-12-01T00:08:32.939Z,145
2022-12-01T00:09:32.822Z,145
2022-12-01T00:10:32.820Z,145
2022-12-01T00:11:32.771Z,145
2022-12-01T00:12:32.824Z,113
2022-12-01T00:13:32.856Z,128
2022-12-01T00:14:32.806Z,145
2022-12-01T00:15:32.883Z,146
2022-12-01T00:16:32.907Z,145
2022-12-01T00:17:32.815Z,162
2022-12-01T00:18:32.828Z,136
2022-12-01T00:19:32.792Z,151
2022-12-01T00:20:32.830Z,157
2022-12-01T00:21:32.802Z,158
2022-12-01T00:22:32.814Z,145
2022-12-01T00:23:32.779Z,145
2022-12-01T00:24:32.796Z,145
2022-12-01T00:25:32.924Z,146
2022-12-01T00:26:32.832Z,146
2022-12-01T00:27:32.796Z,146
2022-12-01T00:28:32.810Z,146
2022-12-01T00:29:32.829Z,146
2022-12-01T00:30:32.851Z,146
2022-12-01T00:31:32.808Z,146
2022-12-01T00:32:32.798Z,112
2022-12-01T00:33:32.790Z,134
2022-12-01T00:34:32.814Z,136
2022-12-01T00:35:32.823Z,142
2022-12-01T00:36:32.823Z,146
2022-12-01T00:37:32.796Z,146
2022-12-01T00:38:32.813Z,146
2022-12-01T00:39:32.954Z,146
2022-12-01T00:40:32.803Z,146
2022-12-01T00:41:32.809Z,146
2022-12-01T00:42:32.804Z,146
2022-12-01T00:43:32.778Z,146
2022-12-01T00:44:32.897Z,146
2022-12-01T00:45:33.002Z,146
2022-12-01T00:46:32.930Z,146
2022-12-01T00:47:32.799Z,146
2022-12-01T00:48:32.787Z,146
2022-12-01T00:49:32.789Z,146
2022-12-01T00:50:32.814Z,146
2022-12-01T00:51:32.811Z,146
2022-12-01T00:52:32.806Z,146
2022-12-01T00:53:32.793Z,111
2022-12-01T00:54:32.810Z,158
2022-12-01T00:55:32.875Z,135
2022-12-01T00:56:32.856Z,140
2022-12-01T00:57:32.795Z,176
2022-12-01T00:58:32.813Z,74
2022-12-01T00:59:32.811Z,111
2022-12-01T01:00:32.838Z,152
2022-12-01T01:01:32.898Z,130
2022-12-01T01:02:32.996Z,142
2022-12-01T01:03:32.779Z,123
2022-12-01T01:04:32.827Z,135
2022-12-01T01:05:32.803Z,128
2022-12-01T01:06:32.846Z,132
2022-12-01T01:07:32.849Z,143
2022-12-01T01:08:32.802Z,142
2022-12-01T01:09:32.776Z,142
2022-12-01T01:10:32.810Z,143
2022-12-01T01:11:32.841Z,143
2022-12-01T01:12:32.825Z,143
2022-12-01T01:13:32.783Z,143
2022-12-01T01:14:32.793Z,143
2022-12-01T01:15:32.851Z,143
2022-12-01T01:16:32.971Z,143
2022-12-01T01:17:32.910Z,157
2022-12-01T01:18:32.836Z,158
2022-12-01T01:19:32.837Z,158
2022-12-01T01:20:32.791Z,165
2022-12-01T01:21:32.791Z,183
2022-12-01T01:22:32.797Z,188
2022-12-01T01:23:32.828Z,183
2022-12-01T01:24:32.828Z,184
2022-12-01T01:25:32.798Z,183
2022-12-01T01:26:32.788Z,183
2022-12-01T01:27:32.813Z,181
2022-12-01T01:28:32.835Z,176
2022-12-01T01:29:32.793Z,182
2022-12-01T01:30:32.900Z,176
2022-12-01T01:31:32.818Z,178
2022-12-01T01:32:32.855Z,180
2022-12-01T01:33:32.794Z,176
2022-12-01T01:34:32.790Z,176
2022-12-01T01:35:32.805Z,167
2022-12-01T01:36:32.814Z,167
2022-12-01T01:37:32.814Z,167
2022-12-01T01:38:32.828Z,167
2022-12-01T01:39:32.800Z,158
2022-12-01T01:40:32.921Z,157
2022-12-01T01:41:32.977Z,157
2022-12-01T01:42:32.979Z,160
2022-12-01T01:43:32.966Z,160
2022-12-01T01:44:32.904Z,160
2022-12-01T01:45:32.898Z,152
2022-12-01T01:46:33.009Z,146
2022-12-01T01:47:32.958Z,153
2022-12-01T01:48:33.155Z,157
2022-12-01T01:49:32.784Z,157
2022-12-01T01:50:32.812Z,157
2022-12-01T01:51:32.818Z,157
2022-12-01T01:52:32.809Z,157
2022-12-01T01:53:32.794Z,157
2022-12-01T01:54:32.856Z,157
2022-12-01T01:55:32.801Z,157
2022-12-01T01:56:32.840Z,157
2022-12-01T01:57:32.782Z,161
2022-12-01T01:58:32.892Z,161
2022-12-01T01:59:32.823Z,161
2022-12-01T02:00:32.841Z,161
2022-12-01T02:01:32.892Z,161
2022-12-01T02:02:32.971Z,161
2022-12-01T02:03:32.818Z,161
2022-12-01T02:04:32.788Z,161
2022-12-01T02:05:32.874Z,161
2022-12-01T02:06:32.816Z,161
2022-12-01T02:07:32.869Z,161
2022-12-01T02:08:32.814Z,161
2022-12-01T02:09:32.770Z,165
2022-12-01T02:10:32.812Z,164
2022-12-01T02:11:32.804Z,164
2022-12-01T02:12:32.818Z,164
2022-12-01T02:13:32.808Z,164
2022-12-01T02:14:32.809Z,163
2022-12-01T02:15:32.806Z,163
2022-12-01T02:16:33.007Z,163
2022-12-01T02:17:35.300Z,163
2022-12-01T02:18:32.785Z,168
2022-12-01T02:19:32.782Z,169
2022-12-01T02:20:32.792Z,183
2022-12-01T02:21:32.850Z,180
2022-12-01T02:22:32.813Z,180
2022-12-01T02:23:32.783Z,180
2022-12-01T02:24:32.804Z,180
2022-12-01T02:25:32.789Z,171
2022-12-01T02:26:32.792Z,171
2022-12-01T02:27:32.797Z,171
2022-12-01T02:28:32.803Z,171
2022-12-01T02:29:32.842Z,171
2022-12-01T02:30:32.954Z,163
2022-12-01T02:31:32.768Z,163
2022-12-01T02:32:32.952Z,163
2022-12-01T02:33:32.788Z,163
2022-12-01T02:34:32.804Z,163
2022-12-01T02:35:32.816Z,163
2022-12-01T02:36:32.826Z,162
2022-12-01T02:37:32.786Z,163
2022-12-01T02:38:32.808Z,167
2022-12-01T02:39:32.803Z,169
2022-12-01T02:40:32.807Z,170
2022-12-01T02:41:32.791Z,170
2022-12-01T02:42:32.788Z,164
2022-12-01T02:43:32.799Z,169
2022-12-01T02:44:32.786Z,168
2022-12-01T02:45:32.795Z,171
2022-12-01T02:46:32.857Z,171
2022-12-01T02:47:32.854Z,171
2022-12-01T02:48:32.800Z,171
2022-12-01T02:49:32.771Z,170
2022-12-01T02:50:32.820Z,168
2022-12-01T02:51:32.807Z,168
2022-12-01T02:52:32.790Z,170
2022-12-01T02:53:32.752Z,170
2022-12-01T02:54:32.793Z,171
2022-12-01T02:55:32.887Z,157
2022-12-01T02:56:32.833Z,166
2022-12-01T02:57:32.748Z,166
2022-12-01T02:58:32.802Z,170
2022-12-01T02:59:32.795Z,168
2022-12-01T03:00:32.946Z,168
2022-12-01T03:01:32.806Z,168
2022-12-01T03:02:32.818Z,158
2022-12-01T03:03:32.812Z,158
2022-12-01T03:04:32.814Z,158
2022-12-01T03:05:32.771Z,169
2022-12-01T03:06:32.845Z,155
2022-12-01T03:07:32.846Z,155
2022-12-01T03:08:32.758Z,159
2022-12-01T03:09:32.762Z,171
2022-12-01T03:10:32.809Z,174
2022-12-01T03:11:33.011Z,174
2022-12-01T03:12:32.803Z,174
2022-12-01T03:13:32.822Z,171
2022-12-01T03:14:32.809Z,171
2022-12-01T03:15:33.080Z,163
2022-12-01T03:16:32.863Z,156
2022-12-01T03:17:32.879Z,158
2022-12-01T03:18:32.840Z,186
2022-12-01T03:19:32.986Z,177
2022-12-01T03:20:32.951Z,177
2022-12-01T03:21:32.771Z,167
2022-12-01T03:22:32.945Z,156
2022-12-01T03:23:32.900Z,156
2022-12-01T03:24:32.914Z,157
2022-12-01T03:25:32.909Z,168
2022-12-01T03:26:32.905Z,157
2022-12-01T03:27:32.988Z,146
2022-12-01T03:28:32.853Z,148
2022-12-01T03:29:32.883Z,126
2022-12-01T03:30:32.863Z,152
2022-12-01T03:31:33.018Z,184
2022-12-01T03:32:32.960Z,172
2022-12-01T03:33:32.794Z,173
2022-12-01T03:34:32.799Z,157
2022-12-01T03:35:32.818Z,167
2022-12-01T03:36:32.822Z,167
2022-12-01T03:37:32.763Z,171
2022-12-01T03:38:32.768Z,172
2022-12-01T03:39:32.799Z,172
2022-12-01T03:40:32.906Z,167
2022-12-01T03:41:32.827Z,167
2022-12-01T03:42:32.892Z,167
2022-12-01T03:43:32.916Z,170
2022-12-01T03:44:32.799Z,155
2022-12-01T03:45:32.788Z,157
2022-12-01T03:46:32.870Z,176
2022-12-01T03:47:32.830Z,170
2022-12-01T03:48:32.804Z,163
2022-12-01T03:49:32.764Z,163
2022-12-01T03:50:32.784Z,163
2022-12-01T03:51:32.800Z,163
2022-12-01T03:52:32.783Z,163
2022-12-01T03:53:32.830Z,170
2022-12-01T03:54:32.812Z,172
2022-12-01T03:55:32.768Z,171
2022-12-01T03:56:32.790Z,170
2022-12-01T03:57:32.753Z,171
2022-12-01T03:58:32.796Z,163
2022-12-01T03:59:32.812Z,163
2022-12-01T04:00:32.987Z,163
2022-12-01T04:01:33.000Z,163
2022-12-01T04:02:32.881Z,163
2022-12-01T04:03:32.765Z,163
2022-12-01T04:04:32.787Z,156
2022-12-01T04:05:32.740Z,156
2022-12-01T04:06:32.784Z,156
2022-12-01T04:07:32.869Z,156
2022-12-01T04:08:32.836Z,156
2022-12-01T04:09:33.003Z,156
2022-12-01T04:10:32.778Z,156
2022-12-01T04:11:33.103Z,154
2022-12-01T04:12:32.784Z,153
2022-12-01T04:13:32.783Z,154
2022-12-01T04:14:32.775Z,153
2022-12-01T04:15:32.769Z,153
2022-12-01T04:16:32.824Z,153
2022-12-01T04:17:32.791Z,153
2022-12-01T04:18:32.784Z,153
2022-12-01T04:19:32.780Z,153
2022-12-01T04:20:32.782Z,159
2022-12-01T04:21:32.812Z,159
2022-12-01T04:22:32.781Z,153
2022-12-01T04:23:32.776Z,152
2022-12-01T04:24:32.759Z,153
2022-12-01T04:25:32.789Z,152
2022-12-01T04:26:32.780Z,152
2022-12-01T04:27:32.936Z,152
2022-12-01T04:28:32.776Z,152
2022-12-01T04:29:32.781Z,152
2022-12-01T04:30:32.798Z,185
2022-12-01T04:31:32.997Z,179
2022-12-01T04:32:32.768Z,179
2022-12-01T04:33:32.775Z,167
2022-12-01T04:34:32.797Z,152
2022-12-01T04:35:32.804Z,153
2022-12-01T04:36:32.796Z,153
2022-12-01T04:37:32.782Z,154
2022-12-01T04:38:32.822Z,159
2022-12-01T04:39:32.798Z,155
2022-12-01T04:40:32.761Z,168
2022-12-01T04:41:32.819Z,160
2022-12-01T04:42:32.786Z,161
2022-12-01T04:43:32.804Z,161
2022-12-01T04:44:34.963Z,163
2022-12-01T04:45:32.805Z,151
2022-12-01T04:46:32.834Z,155
2022-12-01T04:47:32.807Z,161
2022-12-01T04:48:32.757Z,139
2022-12-01T04:49:32.777Z,153
2022-12-01T04:50:32.770Z,167
2022-12-01T04:51:32.785Z,174
2022-12-01T04:52:35.365Z,170
2022-12-01T04:53:32.787Z,181
2022-12-01T04:54:32.802Z,179
2022-12-01T04:55:32.815Z,164
2022-12-01T04:56:32.772Z,164
2022-12-01T04:57:32.784Z,159
2022-12-01T04:58:32.779Z,171
2022-12-01T04:59:32.819Z,161
2022-12-01T05:00:32.872Z,169
2022-12-01T05:01:32.880Z,164
2022-12-01T05:02:32.858Z,165
2022-12-01T05:03:32.799Z,161
2022-12-01T05:04:32.776Z,153
2022-12-01T05:05:32.826Z,157
2022-12-01T05:06:32.791Z,157
2022-12-01T05:07:32.837Z,157
2022-12-01T05:08:32.789Z,159
2022-12-01T05:09:32.780Z,154
2022-12-01T05:10:32.769Z,116.00000000000001
2022-12-01T05:11:32.779Z,150
2022-12-01T05:12:32.758Z,151
2022-12-01T05:13:32.773Z,155
2022-12-01T05:14:32.762Z,159
2022-12-01T05:15:32.780Z,173
2022-12-01T05:16:33.003Z,176
2022-12-01T05:17:36.747Z,155
2022-12-01T05:18:32.793Z,161
2022-12-01T05:19:32.771Z,160
2022-12-01T05:20:32.814Z,160
2022-12-01T05:21:32.778Z,168
2022-12-01T05:23:03.934Z,171
2022-12-01T05:23:32.846Z,175
2022-12-01T05:24:32.768Z,168
2022-12-01T05:25:32.819Z,168
2022-12-01T05:26:32.758Z,173
2022-12-01T05:27:32.802Z,182
2022-12-01T05:28:32.739Z,171
2022-12-01T05:29:32.750Z,180
2022-12-01T05:30:32.773Z,180
2022-12-01T05:31:32.959Z,180
2022-12-01T05:32:32.742Z,180
2022-12-01T05:33:32.785Z,180
2022-12-01T05:34:32.767Z,180
2022-12-01T05:35:32.771Z,153
2022-12-01T05:36:32.783Z,127.00000000000001
2022-12-01T05:37:32.875Z,106
2022-12-01T05:38:32.803Z,118.00000000000001
2022-12-01T05:39:32.756Z,124
2022-12-01T05:40:32.755Z,182
2022-12-01T05:41:32.799Z,183
2022-12-01T05:42:32.795Z,170
2022-12-01T05:43:32.789Z,187
2022-12-01T05:44:32.772Z,182
2022-12-01T05:45:32.830Z,186
2022-12-01T05:46:32.778Z,132
2022-12-01T05:47:32.793Z,137
2022-12-01T05:48:32.743Z,155
2022-12-01T05:49:32.767Z,143
2022-12-01T05:50:32.833Z,140
2022-12-01T05:51:32.776Z,146
2022-12-01T05:52:32.753Z,147
2022-12-01T05:53:32.833Z,144
2022-12-01T05:54:32.826Z,143
2022-12-01T05:55:32.793Z,143
2022-12-01T05:56:32.772Z,138
2022-12-01T05:57:32.805Z,151
2022-12-01T05:58:32.770Z,144
2022-12-01T05:59:32.798Z,137
2022-12-01T06:00:32.727Z,141
2022-12-01T06:01:32.779Z,143
2022-12-01T06:02:32.784Z,143
2022-12-01T06:03:32.841Z,158
2022-12-01T06:04:32.778Z,158
2022-12-01T06:05:32.760Z,155
2022-12-01T06:06:32.772Z,155
2022-12-01T06:07:32.793Z,155
2022-12-01T06:08:32.763Z,156
2022-12-01T06:09:32.823Z,155
2022-12-01T06:10:32.740Z,155
2022-12-01T06:11:32.768Z,155
2022-12-01T06:12:32.829Z,155
2022-12-01T06:13:32.773Z,155
2022-12-01T06:14:32.919Z,156
2022-12-01T06:15:32.762Z,155
2022-12-01T06:16:32.833Z,145
2022-12-01T06:17:37.099Z,146
2022-12-01T06:18:32.762Z,146
2022-12-01T06:19:32.760Z,146
2022-12-01T06:20:32.758Z,146
2022-12-01T06:21:32.830Z,146
2022-12-01T06:22:32.734Z,146
2022-12-01T06:23:32.767Z,146
2022-12-01T06:24:32.757Z,146
2022-12-01T06:25:32.783Z,150
2022-12-01T06:26:32.747Z,150
2022-12-01T06:27:32.830Z,150
2022-12-01T06:28:32.770Z,150
2022-12-01T06:29:33.556Z,153
2022-12-01T06:30:32.775Z,147
2022-12-01T06:31:32.783Z,171
2022-12-01T06:32:32.769Z,166
2022-12-01T06:33:32.825Z,170
2022-12-01T06:34:32.742Z,163
2022-12-01T06:35:32.764Z,148
2022-12-01T06:36:32.752Z,152
2022-12-01T06:37:32.817Z,152
2022-12-01T06:38:32.743Z,164
2022-12-01T06:39:32.776Z,164
2022-12-01T06:40:33.861Z,164
2022-12-01T06:41:42.155Z,164
2022-12-01T06:42:46.074Z,157
2022-12-01T06:43:50.758Z,157
2022-12-01T06:44:54.115Z,157
2022-12-01T06:46:01.575Z,164
2022-12-01T06:47:02.097Z,164
2022-12-01T06:48:06.207Z,164
2022-12-01T06:49:10.075Z,164
2022-12-01T06:50:14.165Z,164
2022-12-01T06:51:18.085Z,164
2022-12-01T06:52:22.153Z,164
2022-12-01T06:53:26.103Z,164
2022-12-01T06:54:30.123Z,164
2022-12-01T06:55:32.756Z,161
2022-12-01T06:56:32.774Z,160
2022-12-01T06:57:32.780Z,160
2022-12-01T06:58:32.795Z,160
2022-12-01T06:59:32.746Z,160
2022-12-01T07:00:32.780Z,160
2022-12-01T07:01:33.042Z,160
2022-12-01T07:02:32.903Z,160
2022-12-01T07:03:32.725Z,160
2022-12-01T07:04:32.791Z,160
2022-12-01T07:05:32.788Z,160
2022-12-01T07:06:32.780Z,160
2022-12-01T07:07:32.808Z,140
2022-12-01T07:08:32.820Z,150
2022-12-01T07:09:32.784Z,150
2022-12-01T07:10:32.927Z,150
2022-12-01T07:11:32.772Z,147
2022-12-01T07:12:32.738Z,170
2022-12-01T07:13:33.892Z,173
2022-12-01T07:14:32.786Z,164
2022-12-01T07:15:32.852Z,164
2022-12-01T07:16:32.805Z,169
2022-12-01T07:17:32.798Z,168
2022-12-01T07:18:32.760Z,164
2022-12-01T07:19:32.860Z,167
2022-12-01T07:20:32.760Z,162
2022-12-01T07:21:32.767Z,171
2022-12-01T07:22:33.072Z,175
2022-12-01T07:23:32.790Z,175
2022-12-01T07:24:32.738Z,177
2022-12-01T07:25:32.809Z,177
2022-12-01T07:26:32.786Z,170
2022-12-01T07:27:32.815Z,170
2022-12-01T07:28:32.732Z,167
2022-12-01T07:29:32.761Z,161
2022-12-01T07:30:32.820Z,161
2022-12-01T07:31:32.833Z,159
2022-12-01T07:32:32.726Z,159
2022-12-01T07:33:32.782Z,160
2022-12-01T07:34:32.840Z,159
2022-12-01T07:35:32.786Z,159
2022-12-01T07:36:32.765Z,159
2022-12-01T07:37:32.758Z,159
2022-12-01T07:38:32.755Z,159
2022-12-01T07:39:32.801Z,159
2022-12-01T07:40:32.712Z,159
2022-12-01T07:41:32.813Z,159
2022-12-01T07:42:32.817Z,159
2022-12-01T07:43:32.811Z,160
2022-12-01T07:44:32.861Z,160
2022-12-01T07:45:32.748Z,160
2022-12-01T07:46:33.254Z,160
2022-12-01T07:47:32.760Z,160
2022-12-01T07:48:32.784Z,159
2022-12-01T07:49:32.759Z,159
2022-12-01T07:50:32.758Z,167
2022-12-01T07:51:32.783Z,167
2022-12-01T07:52:32.748Z,167
2022-12-01T07:53:32.766Z,167
2022-12-01T07:54:32.766Z,167
2022-12-01T07:55:32.781Z,166
2022-12-01T07:56:32.753Z,166
2022-12-01T07:57:32.874Z,166
2022-12-01T07:58:32.725Z,166
2022-12-01T07:59:32.778Z,166
2022-12-01T08:00:32.780Z,166
2022-12-01T08:01:32.895Z,166
2022-12-01T08:02:32.898Z,166
2022-12-01T08:03:32.805Z,166
2022-12-01T08:04:32.757Z,166
2022-12-01T08:05:32.796Z,166
2022-12-01T08:06:32.810Z,166
2022-12-01T08:07:32.797Z,166
2022-12-01T08:08:32.737Z,166
2022-12-01T08:09:32.765Z,166
2022-12-01T08:10:32.753Z,166
2022-12-01T08:11:32.861Z,166
2022-12-01T08:12:32.862Z,166
2022-12-01T08:13:32.815Z,166
2022-12-01T08:14:46.073Z,166
2022-12-01T08:15:50.096Z,166
2022-12-01T08:16:54.133Z,166
2022-12-01T08:17:58.102Z,155
2022-12-01T08:19:02.060Z,156
2022-12-01T08:20:06.123Z,155
2022-12-01T08:21:10.087Z,155
2022-12-01T08:22:14.070Z,155
2022-12-01T08:23:18.065Z,155
2022-12-01T08:24:22.119Z,155
2022-12-01T08:25:26.081Z,155
2022-12-01T08:26:30.086Z,155
2022-12-01T08:27:32.740Z,155
2022-12-01T08:28:32.772Z,155
2022-12-01T08:29:32.926Z,155
2022-12-01T08:30:32.751Z,146
2022-12-01T08:31:32.749Z,150
2022-12-01T08:32:32.751Z,158
2022-12-01T08:33:32.764Z,156
2022-12-01T08:34:32.755Z,157
2022-12-01T08:35:32.744Z,158
2022-12-01T08:36:32.910Z,160
2022-12-01T08:37:32.746Z,155
2022-12-01T08:38:32.766Z,155
2022-12-01T08:39:32.750Z,155
2022-12-01T08:40:32.787Z,155
2022-12-01T08:41:32.799Z,153
2022-12-01T08:42:32.767Z,153
2022-12-01T08:43:56.757Z,153
2022-12-01T08:44:32.925Z,162
2022-12-01T08:45:32.778Z,158
2022-12-01T08:46:32.901Z,147
2022-12-01T08:47:32.746Z,134
2022-12-01T08:48:32.830Z,145
2022-12-01T08:49:32.767Z,155
2022-12-01T08:50:32.764Z,155
2022-12-01T08:51:32.772Z,152
2022-12-01T08:52:32.726Z,141
2022-12-01T08:53:32.771Z,138
2022-12-01T08:54:32.790Z,112
2022-12-01T08:55:32.758Z,142
2022-12-01T08:56:32.727Z,141
2022-12-01T08:57:32.758Z,140
2022-12-01T08:58:32.773Z,140
2022-12-01T08:59:32.758Z,140
2022-12-01T09:00:32.737Z,126
2022-12-01T09:01:33.109Z,140
2022-12-01T09:02:32.867Z,140
2022-12-01T09:03:32.770Z,142
2022-12-01T09:04:32.728Z,140
2022-12-01T09:05:32.756Z,140
2022-12-01T09:06:32.800Z,141
2022-12-01T09:07:32.870Z,151
2022-12-01T09:08:37.996Z,148
2022-12-01T09:09:42.055Z,152
2022-12-01T09:10:45.994Z,151
2022-12-01T09:11:50.032Z,161
2022-12-01T09:12:54.103Z,161
2022-12-01T09:13:58.005Z,161
2022-12-01T09:15:02.093Z,154
2022-12-01T09:16:06.194Z,140
2022-12-01T09:17:10.013Z,142
2022-12-01T09:18:14.022Z,150
2022-12-01T09:19:23.731Z,154
2022-12-01T09:20:22.029Z,166
2022-12-01T09:21:27.884Z,166
2022-12-01T09:22:29.981Z,166
2022-12-01T09:23:32.767Z,166
2022-12-01T09:24:32.765Z,165
2022-12-01T09:25:32.798Z,165
2022-12-01T09:26:32.772Z,165
2022-12-01T09:27:32.762Z,155
2022-12-01T09:28:32.790Z,154
2022-12-01T09:29:32.769Z,154
2022-12-01T09:30:46.024Z,157
2022-12-01T09:31:49.995Z,157
2022-12-01T09:32:54.047Z,157
2022-12-01T09:33:59.033Z,166
2022-12-01T09:35:02.046Z,161
2022-12-01T09:36:06.146Z,176
2022-12-01T09:37:10.188Z,176
2022-12-01T09:38:14.011Z,176
2022-12-01T09:39:18.050Z,154
2022-12-01T09:40:22.284Z,153
2022-12-01T09:41:26.027Z,153
2022-12-01T09:42:35.185Z,153
2022-12-01T09:43:32.759Z,153
2022-12-01T09:44:32.723Z,160
2022-12-01T09:45:32.774Z,161
2022-12-01T09:46:32.830Z,161
2022-12-01T09:47:32.834Z,151
2022-12-01T09:48:32.730Z,162
2022-12-01T09:49:32.765Z,152
2022-12-01T09:50:32.727Z,148
2022-12-01T09:51:32.888Z,123
2022-12-01T09:52:32.774Z,154
2022-12-01T09:53:32.745Z,154
2022-12-01T09:54:32.726Z,121.99999999999999
2022-12-01T09:55:42.761Z,159
2022-12-01T09:56:32.788Z,152
2022-12-01T09:57:32.756Z,150
2022-12-01T09:58:32.752Z,151
2022-12-01T09:59:32.754Z,151
2022-12-01T10:00:32.844Z,158
2022-12-01T10:01:32.788Z,134
2022-12-01T10:02:32.898Z,155
2022-12-01T10:03:32.754Z,136
2022-12-01T10:04:32.920Z,172
2022-12-01T10:05:32.780Z,145
2022-12-01T10:06:32.828Z,139
2022-12-01T10:07:32.787Z,132
2022-12-01T10:08:32.744Z,134
2022-12-01T10:09:32.743Z,139
2022-12-01T10:10:32.764Z,140
2022-12-01T10:11:32.800Z,141
2022-12-01T10:12:32.752Z,134
2022-12-01T10:13:32.752Z,150
2022-12-01T10:14:32.902Z,149
2022-12-01T10:15:32.748Z,147
2022-12-01T10:16:32.821Z,145
2022-12-01T10:17:32.763Z,150
2022-12-01T10:18:32.831Z,151
2022-12-01T10:19:32.930Z,155
2022-12-01T10:20:32.722Z,157
2022-12-01T10:21:32.775Z,157
2022-12-01T10:22:32.766Z,157
2022-12-01T10:23:32.765Z,157
2022-12-01T10:24:32.769Z,157
2022-12-01T10:25:32.753Z,157
2022-12-01T10:26:32.797Z,157
2022-12-01T10:27:32.754Z,153
2022-12-01T10:28:32.773Z,155
2022-12-01T10:29:32.707Z,155
2022-12-01T10:30:32.777Z,157
2022-12-01T10:31:32.832Z,157
2022-12-01T10:32:32.778Z,157
2022-12-01T10:33:32.740Z,160
2022-12-01T10:34:32.757Z,159
2022-12-01T10:35:32.747Z,159
2022-12-01T10:36:32.759Z,156
2022-12-01T10:37:32.775Z,156
2022-12-01T10:38:32.773Z,157
2022-12-01T10:39:32.798Z,157
2022-12-01T10:40:32.748Z,158
2022-12-01T10:41:32.728Z,160
2022-12-01T10:42:32.759Z,160
2022-12-01T10:43:32.748Z,160
2022-12-01T10:44:32.794Z,160
2022-12-01T10:45:32.772Z,160
2022-12-01T10:46:32.750Z,160
2022-12-01T10:47:32.747Z,160
2022-12-01T10:48:32.750Z,160
2022-12-01T10:49:32.761Z,160
2022-12-01T10:50:32.736Z,160
2022-12-01T10:51:32.763Z,160
2022-12-01T10:52:32.754Z,160
2022-12-01T10:53:32.715Z,160
2022-12-01T10:54:32.828Z,160
2022-12-01T10:55:32.737Z,160
2022-12-01T10:56:32.797Z,160
2022-12-01T10:57:32.751Z,160
2022-12-01T10:58:32.758Z,160
2022-12-01T10:59:32.751Z,160
2022-12-01T11:01:32.920Z,164
2022-12-01T11:02:33.365Z,164
2022-12-01T11:03:32.990Z,164
2022-12-01T11:04:32.755Z,164
2022-12-01T11:05:32.731Z,165
2022-12-01T11:06:32.723Z,165
2022-12-01T11:07:32.912Z,169
2022-12-01T11:08:32.723Z,169
2022-12-01T11:09:32.740Z,169
2022-12-01T11:10:32.728Z,169
2022-12-01T11:11:32.853Z,190
2022-12-01T11:12:32.769Z,170
2022-12-01T11:13:32.877Z,184
2022-12-01T11:14:32.727Z,181
2022-12-01T11:15:32.785Z,186
2022-12-01T11:16:32.879Z,170
2022-12-01T11:17:32.770Z,161
2022-12-01T11:18:32.818Z,167
2022-12-01T11:19:32.947Z,156
2022-12-01T11:20:32.944Z,160
2022-12-01T11:21:32.706Z,151
2022-12-01T11:22:32.710Z,160
2022-12-01T11:23:32.773Z,156
2022-12-01T11:24:32.733Z,134
2022-12-01T11:25:32.727Z,174
2022-12-01T11:26:32.712Z,166
2022-12-01T11:27:32.727Z,162
2022-12-01T11:28:32.767Z,161
2022-12-01T11:29:32.820Z,166
2022-12-01T11:30:32.777Z,162
2022-12-01T11:31:32.795Z,165
2022-12-01T11:32:32.767Z,173
2022-12-01T11:33:32.769Z,176
2022-12-01T11:34:32.713Z,153
2022-12-01T11:35:32.842Z,146
2022-12-01T11:36:32.757Z,169
2022-12-01T11:37:32.765Z,162
2022-12-01T11:38:32.735Z,148
2022-12-01T11:39:32.748Z,130
2022-12-01T11:40:32.737Z,144
2022-12-01T11:41:32.753Z,145
2022-12-01T11:42:32.708Z,135
2022-12-01T11:43:32.737Z,144
2022-12-01T11:44:50.997Z,147
2022-12-01T11:45:32.833Z,152
2022-12-01T11:46:32.705Z,152
2022-12-01T11:47:32.842Z,149
2022-12-01T11:48:32.758Z,152
2022-12-01T11:49:32.799Z,164
2022-12-01T11:50:32.723Z,148
2022-12-01T11:51:32.756Z,142
2022-12-01T11:52:32.738Z,111
2022-12-01T11:53:32.764Z,134
2022-12-01T11:54:32.710Z,127.00000000000001
2022-12-01T11:55:32.731Z,140
2022-12-01T11:56:32.771Z,118.00000000000001
2022-12-01T11:57:34.657Z,144
2022-12-01T11:58:32.765Z,130
2022-12-01T11:59:32.736Z,105
2022-12-01T12:00:32.753Z,161
2022-12-01T12:01:32.732Z,151
2022-12-01T12:02:32.789Z,142
2022-12-01T12:03:32.838Z,165
2022-12-01T12:04:32.769Z,132
2022-12-01T12:05:32.737Z,142
2022-12-01T12:06:39.812Z,119.99999999999999
2022-12-01T12:07:32.821Z,107
2022-12-01T12:08:32.761Z,114
2022-12-01T12:09:32.717Z,183
2022-12-01T12:10:32.771Z,144
2022-12-01T12:11:32.710Z,112
2022-12-01T12:12:32.754Z,128
2022-12-01T12:13:33.109Z,151
2022-12-01T12:14:32.748Z,113
2022-12-01T12:15:32.698Z,139
2022-12-01T12:16:33.705Z,134
2022-12-01T12:17:32.842Z,138
2022-12-01T12:18:32.768Z,100
2022-12-01T12:19:34.000Z,113
2022-12-01T12:20:32.742Z,110
2022-12-01T12:21:33.791Z,139
2022-12-01T12:22:32.716Z,141
2022-12-01T12:23:32.722Z,153
2022-12-01T12:24:32.750Z,130
2022-12-01T12:25:32.709Z,146
2022-12-01T12:26:32.728Z,117
2022-12-01T12:27:32.724Z,145
2022-12-01T12:28:32.753Z,97
2022-12-01T12:29:32.736Z,103
2022-12-01T12:30:32.804Z,124
2022-12-01T12:31:32.716Z,142
2022-12-01T12:32:32.719Z,113
2022-12-01T12:33:32.717Z,154
2022-12-01T12:34:32.753Z,151
2022-12-01T12:35:32.726Z,153
2022-12-01T12:36:32.752Z,150
2022-12-01T12:37:32.789Z,142
2022-12-01T12:38:32.723Z,139
2022-12-01T12:39:32.709Z,148
2022-12-01T12:40:32.782Z,142
2022-12-01T12:41:32.739Z,129
2022-12-01T12:42:32.772Z,154
2022-12-01T12:43:32.701Z,147
2022-12-01T12:44:36.796Z,141
2022-12-01T12:45:32.727Z,146
2022-12-01T12:46:32.938Z,151
2022-12-01T12:47:32.720Z,141
2022-12-01T12:48:34.088Z,149
2022-12-01T12:49:32.744Z,150
2022-12-01T12:50:32.726Z,150
2022-12-01T12:51:32.699Z,150
2022-12-01T12:52:32.755Z,150
2022-12-01T12:53:32.733Z,150
2022-12-01T12:54:32.835Z,158
2022-12-01T12:55:32.690Z,158
2022-12-01T12:56:32.751Z,158
2022-12-01T12:57:32.731Z,158
2022-12-01T12:58:32.733Z,149
2022-12-01T12:59:32.707Z,148
2022-12-01T13:00:32.876Z,155
2022-12-01T13:01:32.848Z,155
2022-12-01T13:02:32.819Z,153
2022-12-01T13:03:34.219Z,156
2022-12-01T13:04:32.774Z,159
2022-12-01T13:05:32.820Z,160
2022-12-01T13:06:32.713Z,167
2022-12-01T13:07:32.795Z,151
2022-12-01T13:08:32.741Z,152
2022-12-01T13:09:32.749Z,156
2022-12-01T13:10:32.743Z,152
2022-12-01T13:11:32.733Z,163
2022-12-01T13:12:32.704Z,161
2022-12-01T13:13:32.748Z,147
2022-12-01T13:14:32.777Z,150
2022-12-01T13:15:32.806Z,152
2022-12-01T13:16:32.689Z,108
2022-12-01T13:17:32.739Z,146
2022-12-01T13:18:32.727Z,154
2022-12-01T13:19:32.824Z,154
2022-12-01T13:20:32.709Z,154
2022-12-01T13:21:32.801Z,160
2022-12-01T13:22:32.719Z,170
2022-12-01T13:23:32.738Z,153
2022-12-01T13:24:32.709Z,154
2022-12-01T13:25:32.752Z,158
2022-12-01T13:26:32.781Z,154
2022-12-01T13:27:32.761Z,154
2022-12-01T13:28:32.732Z,155
2022-12-01T13:29:32.711Z,163
2022-12-01T13:30:32.719Z,141
2022-12-01T13:31:32.814Z,168
2022-12-01T13:32:32.799Z,172
2022-12-01T13:33:32.718Z,159
2022-12-01T13:34:33.736Z,173
2022-12-01T13:35:32.725Z,173
2022-12-01T13:36:46.953Z,171
2022-12-01T13:37:32.744Z,170
2022-12-01T13:38:32.738Z,107
2022-12-01T13:39:32.747Z,148
2022-12-01T13:40:32.702Z,138
2022-12-01T13:41:32.731Z,152
2022-12-01T13:42:32.797Z,152
2022-12-01T13:43:32.747Z,164
2022-12-01T13:44:32.688Z,177
2022-12-01T13:45:32.733Z,172
2022-12-01T13:46:32.842Z,155
2022-12-01T13:47:32.764Z,161